sensor_id;sensor_type;location;lat;lon;timestamp;P1;durP1;ratioP1;P2;durP2;ratioP2
75090;SDS011;63674;48.048;8.306;2023-07-20T00:00:22;6.73;;;2.70;;
75090;SDS011;63674;48.048;8.306;2023-07-20T00:02:50;7.97;;;2.60;;
75090;SDS011;63674;48.048;8.306;2023-07-20T00:05:19;7.95;;;2.75;;
75090;SDS011;63674;48.048;8.306;2023-07-20T00:07:51;6.55;;;2.50;;
75090;SDS011;63674;48.048;8.306;2023-07-20T00:10:20;10.05;;;2.67;;
75090;SDS011;63674;48.048;8.306;2023-07-20T00:12:50;10.33;;;2.93;;
75090;SDS011;63674;48.048;8.306;2023-07-20T00:15:18;7.82;;;2.70;;
75090;SDS011;63674;48.048;8.306;2023-07-20T00:17:47;9.25;;;2.80;;
75090;SDS011;63674;48.048;8.306;2023-07-20T00:20:16;6.40;;;2.70;;
75090;SDS011;63674;48.048;8.306;2023-07-20T00:22:45;6.13;;;2.35;;
75090;SDS011;63674;48.048;8.306;2023-07-20T00:25:14;9.73;;;2.57;;
75090;SDS011;63674;48.048;8.306;2023-07-20T00:27:42;10.10;;;2.70;;
75090;SDS011;63674;48.048;8.306;2023-07-20T00:30:13;5.72;;;2.60;;
75090;SDS011;63674;48.048;8.306;2023-07-20T00:32:42;7.25;;;3.03;;
75090;SDS011;63674;48.048;8.306;2023-07-20T00:35:11;6.68;;;2.75;;
75090;SDS011;63674;48.048;8.306;2023-07-20T00:37:40;9.60;;;2.73;;
75090;SDS011;63674;48.048;8.306;2023-07-20T00:40:09;6.60;;;2.70;;
75090;SDS011;63674;48.048;8.306;2023-07-20T00:42:38;8.07;;;2.78;;
75090;SDS011;63674;48.048;8.306;2023-07-20T00:45:07;7.40;;;2.50;;
75090;SDS011;63674;48.048;8.306;2023-07-20T00:47:37;7.35;;;2.60;;
75090;SDS011;63674;48.048;8.306;2023-07-20T00:50:06;7.87;;;3.10;;
75090;SDS011;63674;48.048;8.306;2023-07-20T00:52:37;7.25;;;2.65;;
75090;SDS011;63674;48.048;8.306;2023-07-20T00:55:07;7.68;;;2.60;;
75090;SDS011;63674;48.048;8.306;2023-07-20T00:57:37;7.15;;;2.80;;
75090;SDS011;63674;48.048;8.306;2023-07-20T01:00:06;5.97;;;2.50;;
75090;SDS011;63674;48.048;8.306;2023-07-20T01:02:35;9.13;;;2.63;;
75090;SDS011;63674;48.048;8.306;2023-07-20T01:05:06;6.82;;;2.65;;
75090;SDS011;63674;48.048;8.306;2023-07-20T01:07:37;6.60;;;2.88;;
75090;SDS011;63674;48.048;8.306;2023-07-20T01:10:10;5.90;;;2.72;;
75090;SDS011;63674;48.048;8.306;2023-07-20T01:12:48;6.60;;;2.53;;
75090;SDS011;63674;48.048;8.306;2023-07-20T01:15:20;8.17;;;3.07;;
75090;SDS011;63674;48.048;8.306;2023-07-20T01:17:50;8.75;;;2.60;;
75090;SDS011;63674;48.048;8.306;2023-07-20T01:20:19;9.07;;;2.90;;
75090;SDS011;63674;48.048;8.306;2023-07-20T01:22:55;6.80;;;2.60;;
75090;SDS011;63674;48.048;8.306;2023-07-20T01:26:04;7.47;;;2.75;;
75090;SDS011;63674;48.048;8.306;2023-07-20T01:29:11;9.93;;;3.40;;
75090;SDS011;63674;48.048;8.306;2023-07-20T01:31:52;7.95;;;2.60;;
75090;SDS011;63674;48.048;8.306;2023-07-20T01:34:22;7.85;;;2.65;;
75090;SDS011;63674;48.048;8.306;2023-07-20T01:36:52;9.00;;;2.78;;
75090;SDS011;63674;48.048;8.306;2023-07-20T01:39:23;9.68;;;3.05;;
75090;SDS011;63674;48.048;8.306;2023-07-20T01:41:52;6.10;;;2.73;;
75090;SDS011;63674;48.048;8.306;2023-07-20T01:44:21;9.20;;;3.05;;
75090;SDS011;63674;48.048;8.306;2023-07-20T01:46:51;7.82;;;3.38;;
75090;SDS011;63674;48.048;8.306;2023-07-20T01:49:20;7.32;;;2.58;;
75090;SDS011;63674;48.048;8.306;2023-07-20T01:51:48;8.02;;;2.63;;
75090;SDS011;63674;48.048;8.306;2023-07-20T01:54:20;8.30;;;2.80;;
75090;SDS011;63674;48.048;8.306;2023-07-20T01:56:48;7.32;;;2.70;;
75090;SDS011;63674;48.048;8.306;2023-07-20T01:59:17;8.18;;;2.67;;
75090;SDS011;63674;48.048;8.306;2023-07-20T02:01:45;6.72;;;2.70;;
75090;SDS011;63674;48.048;8.306;2023-07-20T02:04:16;7.32;;;2.63;;
75090;SDS011;63674;48.048;8.306;2023-07-20T02:06:44;9.80;;;3.00;;
75090;SDS011;63674;48.048;8.306;2023-07-20T02:09:13;8.02;;;2.70;;
75090;SDS011;63674;48.048;8.306;2023-07-20T02:11:41;6.70;;;2.58;;
75090;SDS011;63674;48.048;8.306;2023-07-20T02:14:10;5.55;;;2.47;;
75090;SDS011;63674;48.048;8.306;2023-07-20T02:16:38;7.40;;;2.90;;
75090;SDS011;63674;48.048;8.306;2023-07-20T02:19:07;7.07;;;2.47;;
75090;SDS011;63674;48.048;8.306;2023-07-20T02:21:37;8.35;;;2.70;;
75090;SDS011;63674;48.048;8.306;2023-07-20T02:24:06;8.90;;;2.95;;
75090;SDS011;63674;48.048;8.306;2023-07-20T02:26:34;7.65;;;2.90;;
75090;SDS011;63674;48.048;8.306;2023-07-20T02:29:03;5.85;;;2.25;;
75090;SDS011;63674;48.048;8.306;2023-07-20T02:31:31;8.13;;;2.40;;
75090;SDS011;63674;48.048;8.306;2023-07-20T02:34:00;7.00;;;2.67;;
75090;SDS011;63674;48.048;8.306;2023-07-20T02:36:28;6.78;;;2.30;;
75090;SDS011;63674;48.048;8.306;2023-07-20T02:39:00;6.53;;;2.60;;
75090;SDS011;63674;48.048;8.306;2023-07-20T02:41:30;6.22;;;2.70;;
75090;SDS011;63674;48.048;8.306;2023-07-20T02:44:00;7.47;;;2.57;;
75090;SDS011;63674;48.048;8.306;2023-07-20T02:46:30;6.28;;;2.45;;
75090;SDS011;63674;48.048;8.306;2023-07-20T02:48:58;6.07;;;2.42;;
75090;SDS011;63674;48.048;8.306;2023-07-20T02:51:27;6.18;;;2.55;;
75090;SDS011;63674;48.048;8.306;2023-07-20T02:53:55;11.38;;;2.50;;
75090;SDS011;63674;48.048;8.306;2023-07-20T02:56:25;10.03;;;2.70;;
75090;SDS011;63674;48.048;8.306;2023-07-20T02:58:54;6.20;;;2.60;;
75090;SDS011;63674;48.048;8.306;2023-07-20T03:01:23;8.90;;;2.95;;
75090;SDS011;63674;48.048;8.306;2023-07-20T03:03:55;6.85;;;2.72;;
75090;SDS011;63674;48.048;8.306;2023-07-20T03:06:24;6.93;;;2.60;;
75090;SDS011;63674;48.048;8.306;2023-07-20T03:08:53;9.37;;;2.60;;
75090;SDS011;63674;48.048;8.306;2023-07-20T03:11:22;7.78;;;2.45;;
75090;SDS011;63674;48.048;8.306;2023-07-20T03:13:52;7.25;;;2.80;;
75090;SDS011;63674;48.048;8.306;2023-07-20T03:16:21;9.27;;;2.50;;
75090;SDS011;63674;48.048;8.306;2023-07-20T03:18:52;8.10;;;2.63;;
75090;SDS011;63674;48.048;8.306;2023-07-20T03:21:21;7.40;;;2.90;;
75090;SDS011;63674;48.048;8.306;2023-07-20T03:23:49;9.65;;;2.88;;
75090;SDS011;63674;48.048;8.306;2023-07-20T03:26:18;10.00;;;2.67;;
75090;SDS011;63674;48.048;8.306;2023-07-20T03:28:48;5.47;;;2.30;;
75090;SDS011;63674;48.048;8.306;2023-07-20T03:31:18;7.93;;;2.40;;
75090;SDS011;63674;48.048;8.306;2023-07-20T03:33:47;8.93;;;2.50;;
75090;SDS011;63674;48.048;8.306;2023-07-20T03:36:16;6.63;;;2.47;;
75090;SDS011;63674;48.048;8.306;2023-07-20T03:38:45;7.88;;;2.65;;
75090;SDS011;63674;48.048;8.306;2023-07-20T03:41:14;7.43;;;2.83;;
75090;SDS011;63674;48.048;8.306;2023-07-20T03:43:42;6.60;;;2.58;;
75090;SDS011;63674;48.048;8.306;2023-07-20T03:46:11;6.53;;;2.57;;
75090;SDS011;63674;48.048;8.306;2023-07-20T03:48:41;8.63;;;2.97;;
75090;SDS011;63674;48.048;8.306;2023-07-20T03:51:10;10.25;;;2.97;;
75090;SDS011;63674;48.048;8.306;2023-07-20T03:53:38;6.60;;;2.75;;
75090;SDS011;63674;48.048;8.306;2023-07-20T03:56:07;7.03;;;2.92;;
75090;SDS011;63674;48.048;8.306;2023-07-20T03:58:35;6.60;;;2.63;;
75090;SDS011;63674;48.048;8.306;2023-07-20T04:01:04;7.65;;;2.97;;
75090;SDS011;63674;48.048;8.306;2023-07-20T04:03:33;7.53;;;3.00;;
75090;SDS011;63674;48.048;8.306;2023-07-20T04:06:04;7.38;;;2.72;;
75090;SDS011;63674;48.048;8.306;2023-07-20T04:08:34;5.60;;;2.80;;
75090;SDS011;63674;48.048;8.306;2023-07-20T04:11:03;7.13;;;2.70;;
75090;SDS011;63674;48.048;8.306;2023-07-20T04:13:32;9.48;;;2.58;;
75090;SDS011;63674;48.048;8.306;2023-07-20T04:16:00;8.25;;;2.65;;
75090;SDS011;63674;48.048;8.306;2023-07-20T04:18:29;7.70;;;2.90;;
75090;SDS011;63674;48.048;8.306;2023-07-20T04:20:58;7.43;;;2.80;;
75090;SDS011;63674;48.048;8.306;2023-07-20T04:23:27;8.30;;;3.10;;
75090;SDS011;63674;48.048;8.306;2023-07-20T04:25:56;9.32;;;2.97;;
75090;SDS011;63674;48.048;8.306;2023-07-20T04:28:25;8.73;;;2.92;;
75090;SDS011;63674;48.048;8.306;2023-07-20T04:30:53;6.38;;;2.83;;
75090;SDS011;63674;48.048;8.306;2023-07-20T04:33:22;6.47;;;2.97;;
75090;SDS011;63674;48.048;8.306;2023-07-20T04:35:50;8.97;;;3.13;;
75090;SDS011;63674;48.048;8.306;2023-07-20T04:38:21;8.05;;;3.00;;
75090;SDS011;63674;48.048;8.306;2023-07-20T04:40:52;6.80;;;3.05;;
75090;SDS011;63674;48.048;8.306;2023-07-20T04:43:21;6.93;;;3.00;;
75090;SDS011;63674;48.048;8.306;2023-07-20T04:45:49;8.90;;;3.00;;
75090;SDS011;63674;48.048;8.306;2023-07-20T04:48:18;7.00;;;2.97;;
75090;SDS011;63674;48.048;8.306;2023-07-20T04:50:46;7.55;;;3.25;;
75090;SDS011;63674;48.048;8.306;2023-07-20T04:53:15;7.25;;;3.00;;
75090;SDS011;63674;48.048;8.306;2023-07-20T04:55:47;10.73;;;3.20;;
75090;SDS011;63674;48.048;8.306;2023-07-20T04:58:20;7.68;;;3.40;;
75090;SDS011;63674;48.048;8.306;2023-07-20T05:00:50;6.77;;;3.10;;
75090;SDS011;63674;48.048;8.306;2023-07-20T05:03:18;7.10;;;3.03;;
75090;SDS011;63674;48.048;8.306;2023-07-20T05:05:47;8.18;;;3.55;;
75090;SDS011;63674;48.048;8.306;2023-07-20T05:08:16;7.45;;;3.22;;
75090;SDS011;63674;48.048;8.306;2023-07-20T05:10:45;8.27;;;3.45;;
75090;SDS011;63674;48.048;8.306;2023-07-20T05:13:13;6.93;;;3.50;;
75090;SDS011;63674;48.048;8.306;2023-07-20T05:15:43;8.13;;;3.53;;
75090;SDS011;63674;48.048;8.306;2023-07-20T05:18:12;11.07;;;4.00;;
75090;SDS011;63674;48.048;8.306;2023-07-20T05:20:46;8.25;;;3.55;;
75090;SDS011;63674;48.048;8.306;2023-07-20T05:23:17;9.15;;;3.60;;
75090;SDS011;63674;48.048;8.306;2023-07-20T05:25:47;9.50;;;3.83;;
75090;SDS011;63674;48.048;8.306;2023-07-20T05:28:22;10.50;;;3.90;;
75090;SDS011;63674;48.048;8.306;2023-07-20T05:30:52;10.13;;;4.05;;
75090;SDS011;63674;48.048;8.306;2023-07-20T05:33:21;9.93;;;4.35;;
75090;SDS011;63674;48.048;8.306;2023-07-20T05:35:50;8.60;;;3.53;;
75090;SDS011;63674;48.048;8.306;2023-07-20T05:38:19;7.73;;;3.67;;
75090;SDS011;63674;48.048;8.306;2023-07-20T05:40:47;8.60;;;3.30;;
75090;SDS011;63674;48.048;8.306;2023-07-20T05:43:16;7.30;;;3.10;;
75090;SDS011;63674;48.048;8.306;2023-07-20T05:45:45;9.15;;;3.20;;
75090;SDS011;63674;48.048;8.306;2023-07-20T05:48:16;8.52;;;3.70;;
75090;SDS011;63674;48.048;8.306;2023-07-20T05:50:44;10.00;;;3.00;;
75090;SDS011;63674;48.048;8.306;2023-07-20T05:53:13;9.20;;;3.10;;
75090;SDS011;63674;48.048;8.306;2023-07-20T05:55:41;8.07;;;3.00;;
75090;SDS011;63674;48.048;8.306;2023-07-20T05:58:10;8.80;;;3.50;;
75090;SDS011;63674;48.048;8.306;2023-07-20T06:00:38;7.22;;;3.00;;
75090;SDS011;63674;48.048;8.306;2023-07-20T06:03:07;10.83;;;3.07;;
75090;SDS011;63674;48.048;8.306;2023-07-20T06:05:37;11.27;;;3.10;;
75090;SDS011;63674;48.048;8.306;2023-07-20T06:08:05;9.02;;;3.05;;
75090;SDS011;63674;48.048;8.306;2023-07-20T06:10:34;7.65;;;2.60;;
75090;SDS011;63674;48.048;8.306;2023-07-20T06:13:03;7.47;;;2.75;;
75090;SDS011;63674;48.048;8.306;2023-07-20T06:15:32;7.10;;;2.47;;
75090;SDS011;63674;48.048;8.306;2023-07-20T06:18:02;9.50;;;2.92;;
75090;SDS011;63674;48.048;8.306;2023-07-20T06:20:31;7.13;;;2.40;;
75090;SDS011;63674;48.048;8.306;2023-07-20T06:23:01;10.68;;;2.88;;
75090;SDS011;63674;48.048;8.306;2023-07-20T06:25:29;7.70;;;2.67;;
75090;SDS011;63674;48.048;8.306;2023-07-20T06:27:58;7.97;;;2.90;;
75090;SDS011;63674;48.048;8.306;2023-07-20T06:30:27;6.20;;;2.28;;
75090;SDS011;63674;48.048;8.306;2023-07-20T06:32:55;6.43;;;2.40;;
75090;SDS011;63674;48.048;8.306;2023-07-20T06:35:24;6.85;;;2.40;;
75090;SDS011;63674;48.048;8.306;2023-07-20T06:37:53;11.10;;;2.60;;
75090;SDS011;63674;48.048;8.306;2023-07-20T06:40:23;6.53;;;2.27;;
75090;SDS011;63674;48.048;8.306;2023-07-20T06:42:54;6.60;;;2.30;;
75090;SDS011;63674;48.048;8.306;2023-07-20T06:45:26;6.28;;;1.90;;
75090;SDS011;63674;48.048;8.306;2023-07-20T06:47:54;6.78;;;2.28;;
75090;SDS011;63674;48.048;8.306;2023-07-20T06:50:23;6.30;;;2.47;;
75090;SDS011;63674;48.048;8.306;2023-07-20T06:52:53;5.73;;;2.30;;
75090;SDS011;63674;48.048;8.306;2023-07-20T06:55:25;6.03;;;2.22;;
75090;SDS011;63674;48.048;8.306;2023-07-20T06:57:59;6.20;;;2.25;;
75090;SDS011;63674;48.048;8.306;2023-07-20T07:00:33;6.20;;;2.20;;
75090;SDS011;63674;48.048;8.306;2023-07-20T07:03:01;6.20;;;2.40;;
75090;SDS011;63674;48.048;8.306;2023-07-20T07:05:30;5.37;;;2.10;;
75090;SDS011;63674;48.048;8.306;2023-07-20T07:08:03;7.28;;;2.22;;
75090;SDS011;63674;48.048;8.306;2023-07-20T07:10:34;7.60;;;2.35;;
75090;SDS011;63674;48.048;8.306;2023-07-20T07:13:04;5.00;;;2.08;;
75090;SDS011;63674;48.048;8.306;2023-07-20T07:15:33;6.15;;;2.30;;
75090;SDS011;63674;48.048;8.306;2023-07-20T07:18:04;8.53;;;2.40;;
75090;SDS011;63674;48.048;8.306;2023-07-20T07:20:33;5.93;;;2.38;;
75090;SDS011;63674;48.048;8.306;2023-07-20T07:23:01;6.82;;;2.17;;
75090;SDS011;63674;48.048;8.306;2023-07-20T07:25:30;6.40;;;2.38;;
75090;SDS011;63674;48.048;8.306;2023-07-20T07:28:00;7.78;;;2.22;;
75090;SDS011;63674;48.048;8.306;2023-07-20T07:30:29;5.77;;;2.50;;
75090;SDS011;63674;48.048;8.306;2023-07-20T07:33:00;10.55;;;2.40;;
75090;SDS011;63674;48.048;8.306;2023-07-20T07:35:28;6.10;;;2.20;;
75090;SDS011;63674;48.048;8.306;2023-07-20T07:37:57;5.82;;;2.00;;
75090;SDS011;63674;48.048;8.306;2023-07-20T07:40:47;5.25;;;2.05;;
75090;SDS011;63674;48.048;8.306;2023-07-20T07:43:15;6.13;;;1.93;;
75090;SDS011;63674;48.048;8.306;2023-07-20T07:45:44;7.47;;;2.08;;
75090;SDS011;63674;48.048;8.306;2023-07-20T07:48:12;6.60;;;2.08;;
75090;SDS011;63674;48.048;8.306;2023-07-20T07:50:41;6.03;;;1.88;;
75090;SDS011;63674;48.048;8.306;2023-07-20T07:53:10;9.32;;;2.15;;
75090;SDS011;63674;48.048;8.306;2023-07-20T07:55:38;6.40;;;2.00;;
75090;SDS011;63674;48.048;8.306;2023-07-20T07:58:09;6.35;;;1.83;;
75090;SDS011;63674;48.048;8.306;2023-07-20T08:00:37;6.18;;;1.85;;
75090;SDS011;63674;48.048;8.306;2023-07-20T08:03:06;6.28;;;2.17;;
75090;SDS011;63674;48.048;8.306;2023-07-20T08:05:35;5.15;;;1.83;;
75090;SDS011;63674;48.048;8.306;2023-07-20T08:08:04;5.33;;;1.67;;
75090;SDS011;63674;48.048;8.306;2023-07-20T08:10:33;6.38;;;2.10;;
75090;SDS011;63674;48.048;8.306;2023-07-20T08:13:01;5.65;;;2.00;;
75090;SDS011;63674;48.048;8.306;2023-07-20T08:15:31;5.35;;;2.00;;
75090;SDS011;63674;48.048;8.306;2023-07-20T08:18:00;6.43;;;2.03;;
75090;SDS011;63674;48.048;8.306;2023-07-20T08:20:29;5.63;;;1.87;;
75090;SDS011;63674;48.048;8.306;2023-07-20T08:22:58;6.50;;;2.03;;
75090;SDS011;63674;48.048;8.306;2023-07-20T08:25:27;7.63;;;1.80;;
75090;SDS011;63674;48.048;8.306;2023-07-20T08:27:55;5.60;;;2.05;;
75090;SDS011;63674;48.048;8.306;2023-07-20T08:30:24;6.88;;;1.60;;
75090;SDS011;63674;48.048;8.306;2023-07-20T08:32:54;7.10;;;2.00;;
75090;SDS011;63674;48.048;8.306;2023-07-20T08:35:22;7.85;;;2.08;;
75090;SDS011;63674;48.048;8.306;2023-07-20T08:37:51;4.22;;;1.45;;
75090;SDS011;63674;48.048;8.306;2023-07-20T08:40:22;5.28;;;1.80;;
75090;SDS011;63674;48.048;8.306;2023-07-20T08:42:50;5.03;;;1.85;;
75090;SDS011;63674;48.048;8.306;2023-07-20T08:45:20;6.97;;;2.00;;
75090;SDS011;63674;48.048;8.306;2023-07-20T08:47:54;5.20;;;1.80;;
75090;SDS011;63674;48.048;8.306;2023-07-20T08:50:25;4.57;;;1.98;;
75090;SDS011;63674;48.048;8.306;2023-07-20T08:52:55;6.00;;;1.75;;
75090;SDS011;63674;48.048;8.306;2023-07-20T08:55:26;6.90;;;2.00;;
75090;SDS011;63674;48.048;8.306;2023-07-20T08:57:55;6.37;;;2.07;;
75090;SDS011;63674;48.048;8.306;2023-07-20T09:00:25;5.53;;;1.75;;
75090;SDS011;63674;48.048;8.306;2023-07-20T09:02:57;5.18;;;1.90;;
75090;SDS011;63674;48.048;8.306;2023-07-20T09:05:27;6.65;;;1.83;;
75090;SDS011;63674;48.048;8.306;2023-07-20T09:07:58;6.60;;;1.80;;
75090;SDS011;63674;48.048;8.306;2023-07-20T09:10:28;7.43;;;1.70;;
75090;SDS011;63674;48.048;8.306;2023-07-20T09:12:57;6.55;;;1.70;;
75090;SDS011;63674;48.048;8.306;2023-07-20T09:15:26;4.05;;;1.45;;
75090;SDS011;63674;48.048;8.306;2023-07-20T09:18:01;6.20;;;1.75;;
75090;SDS011;63674;48.048;8.306;2023-07-20T09:20:31;7.10;;;1.95;;
75090;SDS011;63674;48.048;8.306;2023-07-20T09:23:04;5.60;;;1.80;;
75090;SDS011;63674;48.048;8.306;2023-07-20T09:25:34;5.85;;;1.65;;
75090;SDS011;63674;48.048;8.306;2023-07-20T09:28:04;5.45;;;1.90;;
75090;SDS011;63674;48.048;8.306;2023-07-20T09:30:32;4.70;;;1.80;;
75090;SDS011;63674;48.048;8.306;2023-07-20T09:33:02;5.95;;;1.90;;
75090;SDS011;63674;48.048;8.306;2023-07-20T09:35:51;5.90;;;1.53;;
75090;SDS011;63674;48.048;8.306;2023-07-20T09:38:22;5.13;;;1.80;;
75090;SDS011;63674;48.048;8.306;2023-07-20T09:40:51;7.30;;;1.90;;
75090;SDS011;63674;48.048;8.306;2023-07-20T09:43:22;5.38;;;1.90;;
75090;SDS011;63674;48.048;8.306;2023-07-20T09:45:52;5.70;;;1.77;;
75090;SDS011;63674;48.048;8.306;2023-07-20T09:48:27;5.90;;;1.37;;
75090;SDS011;63674;48.048;8.306;2023-07-20T09:51:01;4.38;;;1.50;;
75090;SDS011;63674;48.048;8.306;2023-07-20T09:53:33;5.93;;;1.60;;
75090;SDS011;63674;48.048;8.306;2023-07-20T09:56:02;5.60;;;1.70;;
75090;SDS011;63674;48.048;8.306;2023-07-20T09:58:31;7.85;;;1.63;;
75090;SDS011;63674;48.048;8.306;2023-07-20T10:01:01;4.70;;;1.57;;
75090;SDS011;63674;48.048;8.306;2023-07-20T10:03:36;6.70;;;1.65;;
75090;SDS011;63674;48.048;8.306;2023-07-20T10:06:06;4.80;;;1.70;;
75090;SDS011;63674;48.048;8.306;2023-07-20T10:08:38;5.22;;;1.35;;
75090;SDS011;63674;48.048;8.306;2023-07-20T10:11:11;5.38;;;1.60;;
75090;SDS011;63674;48.048;8.306;2023-07-20T10:13:43;4.63;;;1.60;;
75090;SDS011;63674;48.048;8.306;2023-07-20T10:16:14;5.30;;;1.77;;
75090;SDS011;63674;48.048;8.306;2023-07-20T10:18:55;5.05;;;1.70;;
75090;SDS011;63674;48.048;8.306;2023-07-20T10:21:48;5.40;;;1.52;;
75090;SDS011;63674;48.048;8.306;2023-07-20T10:24:25;5.13;;;1.50;;
75090;SDS011;63674;48.048;8.306;2023-07-20T10:26:55;5.53;;;1.60;;
75090;SDS011;63674;48.048;8.306;2023-07-20T10:29:27;8.82;;;1.80;;
75090;SDS011;63674;48.048;8.306;2023-07-20T10:31:57;5.07;;;1.70;;
75090;SDS011;63674;48.048;8.306;2023-07-20T10:34:27;6.63;;;1.77;;
75090;SDS011;63674;48.048;8.306;2023-07-20T10:36:56;7.60;;;1.75;;
75090;SDS011;63674;48.048;8.306;2023-07-20T10:39:26;6.43;;;1.90;;
75090;SDS011;63674;48.048;8.306;2023-07-20T10:42:00;4.53;;;1.63;;
75090;SDS011;63674;48.048;8.306;2023-07-20T10:44:29;5.38;;;1.58;;
75090;SDS011;63674;48.048;8.306;2023-07-20T10:46:59;5.22;;;1.40;;
75090;SDS011;63674;48.048;8.306;2023-07-20T10:49:32;6.00;;;1.70;;
75090;SDS011;63674;48.048;8.306;2023-07-20T10:52:03;5.80;;;1.50;;
75090;SDS011;63674;48.048;8.306;2023-07-20T10:54:34;4.85;;;1.45;;
75090;SDS011;63674;48.048;8.306;2023-07-20T10:57:22;4.85;;;1.70;;
75090;SDS011;63674;48.048;8.306;2023-07-20T11:00:07;5.10;;;1.40;;
75090;SDS011;63674;48.048;8.306;2023-07-20T11:02:42;5.20;;;1.65;;
75090;SDS011;63674;48.048;8.306;2023-07-20T11:05:35;4.47;;;1.47;;
75090;SDS011;63674;48.048;8.306;2023-07-20T11:08:09;4.90;;;1.73;;
75090;SDS011;63674;48.048;8.306;2023-07-20T11:10:39;4.95;;;1.38;;
75090;SDS011;63674;48.048;8.306;2023-07-20T11:13:18;5.30;;;1.52;;
75090;SDS011;63674;48.048;8.306;2023-07-20T11:16:03;4.47;;;1.60;;
75090;SDS011;63674;48.048;8.306;2023-07-20T11:18:33;4.77;;;1.50;;
75090;SDS011;63674;48.048;8.306;2023-07-20T11:21:11;4.95;;;1.40;;
75090;SDS011;63674;48.048;8.306;2023-07-20T11:23:40;5.95;;;1.67;;
75090;SDS011;63674;48.048;8.306;2023-07-20T11:26:09;5.80;;;1.60;;
75090;SDS011;63674;48.048;8.306;2023-07-20T11:28:39;5.47;;;1.50;;
75090;SDS011;63674;48.048;8.306;2023-07-20T11:31:07;4.47;;;1.60;;
75090;SDS011;63674;48.048;8.306;2023-07-20T11:33:36;7.20;;;1.80;;
75090;SDS011;63674;48.048;8.306;2023-07-20T11:36:06;8.15;;;1.60;;
75090;SDS011;63674;48.048;8.306;2023-07-20T11:38:41;5.57;;;1.20;;
75090;SDS011;63674;48.048;8.306;2023-07-20T11:41:10;6.03;;;1.70;;
75090;SDS011;63674;48.048;8.306;2023-07-20T11:43:40;5.90;;;1.50;;
75090;SDS011;63674;48.048;8.306;2023-07-20T11:46:09;5.50;;;1.60;;
75090;SDS011;63674;48.048;8.306;2023-07-20T11:48:38;5.35;;;1.58;;
75090;SDS011;63674;48.048;8.306;2023-07-20T11:51:14;5.10;;;1.73;;
75090;SDS011;63674;48.048;8.306;2023-07-20T11:53:44;5.43;;;1.60;;
75090;SDS011;63674;48.048;8.306;2023-07-20T11:56:13;5.77;;;1.60;;
75090;SDS011;63674;48.048;8.306;2023-07-20T11:58:42;5.95;;;1.70;;
75090;SDS011;63674;48.048;8.306;2023-07-20T12:01:11;4.55;;;1.40;;
75090;SDS011;63674;48.048;8.306;2023-07-20T12:03:41;5.60;;;1.45;;
75090;SDS011;63674;48.048;8.306;2023-07-20T12:06:11;6.10;;;1.67;;
75090;SDS011;63674;48.048;8.306;2023-07-20T12:08:42;6.13;;;1.60;;
75090;SDS011;63674;48.048;8.306;2023-07-20T12:11:11;4.40;;;1.50;;
75090;SDS011;63674;48.048;8.306;2023-07-20T12:13:41;5.95;;;2.00;;
75090;SDS011;63674;48.048;8.306;2023-07-20T12:16:12;4.57;;;1.50;;
75090;SDS011;63674;48.048;8.306;2023-07-20T12:18:43;7.30;;;1.50;;
75090;SDS011;63674;48.048;8.306;2023-07-20T12:21:12;4.27;;;1.50;;
75090;SDS011;63674;48.048;8.306;2023-07-20T12:23:42;4.05;;;1.60;;
75090;SDS011;63674;48.048;8.306;2023-07-20T12:26:11;4.97;;;1.70;;
75090;SDS011;63674;48.048;8.306;2023-07-20T12:28:42;6.43;;;1.63;;
75090;SDS011;63674;48.048;8.306;2023-07-20T12:31:11;5.40;;;1.58;;
75090;SDS011;63674;48.048;8.306;2023-07-20T12:33:40;4.23;;;1.60;;
75090;SDS011;63674;48.048;8.306;2023-07-20T12:36:09;5.38;;;1.88;;
75090;SDS011;63674;48.048;8.306;2023-07-20T12:38:39;6.65;;;1.73;;
75090;SDS011;63674;48.048;8.306;2023-07-20T12:41:09;4.50;;;1.48;;
75090;SDS011;63674;48.048;8.306;2023-07-20T12:43:40;9.35;;;1.63;;
75090;SDS011;63674;48.048;8.306;2023-07-20T12:46:10;5.10;;;1.77;;
75090;SDS011;63674;48.048;8.306;2023-07-20T12:48:41;6.47;;;1.98;;
75090;SDS011;63674;48.048;8.306;2023-07-20T12:51:13;4.70;;;1.48;;
75090;SDS011;63674;48.048;8.306;2023-07-20T12:53:43;5.43;;;1.55;;
75090;SDS011;63674;48.048;8.306;2023-07-20T12:56:12;6.05;;;1.80;;
75090;SDS011;63674;48.048;8.306;2023-07-20T12:58:44;4.40;;;1.80;;
75090;SDS011;63674;48.048;8.306;2023-07-20T13:01:15;7.35;;;2.17;;
75090;SDS011;63674;48.048;8.306;2023-07-20T13:03:45;4.88;;;1.60;;
75090;SDS011;63674;48.048;8.306;2023-07-20T13:06:16;6.70;;;1.70;;
75090;SDS011;63674;48.048;8.306;2023-07-20T13:08:49;5.72;;;2.00;;
75090;SDS011;63674;48.048;8.306;2023-07-20T13:11:22;5.17;;;1.77;;
75090;SDS011;63674;48.048;8.306;2023-07-20T13:13:51;5.68;;;1.52;;
75090;SDS011;63674;48.048;8.306;2023-07-20T13:16:20;4.20;;;1.50;;
75090;SDS011;63674;48.048;8.306;2023-07-20T13:18:49;5.55;;;1.83;;
75090;SDS011;63674;48.048;8.306;2023-07-20T13:21:17;5.88;;;1.73;;
75090;SDS011;63674;48.048;8.306;2023-07-20T13:23:52;4.87;;;1.50;;
75090;SDS011;63674;48.048;8.306;2023-07-20T13:26:21;4.22;;;1.60;;
75090;SDS011;63674;48.048;8.306;2023-07-20T13:28:50;4.97;;;1.63;;
75090;SDS011;63674;48.048;8.306;2023-07-20T13:31:21;7.45;;;1.80;;
75090;SDS011;63674;48.048;8.306;2023-07-20T13:33:50;5.80;;;1.80;;
75090;SDS011;63674;48.048;8.306;2023-07-20T13:36:25;5.97;;;1.90;;
75090;SDS011;63674;48.048;8.306;2023-07-20T13:38:58;4.53;;;1.50;;
75090;SDS011;63674;48.048;8.306;2023-07-20T13:41:27;4.63;;;1.60;;
75090;SDS011;63674;48.048;8.306;2023-07-20T13:43:56;6.22;;;1.63;;
75090;SDS011;63674;48.048;8.306;2023-07-20T13:46:25;5.75;;;1.80;;
75090;SDS011;63674;48.048;8.306;2023-07-20T13:48:56;4.43;;;1.63;;
75090;SDS011;63674;48.048;8.306;2023-07-20T13:51:25;5.38;;;1.80;;
75090;SDS011;63674;48.048;8.306;2023-07-20T13:53:54;5.47;;;1.63;;
75090;SDS011;63674;48.048;8.306;2023-07-20T13:56:24;4.75;;;1.95;;
75090;SDS011;63674;48.048;8.306;2023-07-20T13:58:53;4.88;;;1.90;;
75090;SDS011;63674;48.048;8.306;2023-07-20T14:01:24;4.63;;;1.77;;
75090;SDS011;63674;48.048;8.306;2023-07-20T14:03:55;4.93;;;1.63;;
75090;SDS011;63674;48.048;8.306;2023-07-20T14:06:31;4.22;;;1.55;;
75090;SDS011;63674;48.048;8.306;2023-07-20T14:09:01;4.93;;;1.60;;
75090;SDS011;63674;48.048;8.306;2023-07-20T14:11:31;4.18;;;1.60;;
75090;SDS011;63674;48.048;8.306;2023-07-20T14:14:03;4.43;;;1.70;;
75090;SDS011;63674;48.048;8.306;2023-07-20T14:16:31;4.70;;;1.60;;
75090;SDS011;63674;48.048;8.306;2023-07-20T14:19:00;4.25;;;1.65;;
75090;SDS011;63674;48.048;8.306;2023-07-20T14:21:29;7.20;;;1.83;;
75090;SDS011;63674;48.048;8.306;2023-07-20T14:23:58;6.75;;;1.42;;
75090;SDS011;63674;48.048;8.306;2023-07-20T14:26:27;6.43;;;1.63;;
75090;SDS011;63674;48.048;8.306;2023-07-20T14:29:00;6.70;;;1.58;;
75090;SDS011;63674;48.048;8.306;2023-07-20T14:31:29;5.65;;;1.40;;
75090;SDS011;63674;48.048;8.306;2023-07-20T14:33:58;3.85;;;1.58;;
75090;SDS011;63674;48.048;8.306;2023-07-20T14:36:27;4.78;;;1.80;;
75090;SDS011;63674;48.048;8.306;2023-07-20T14:38:57;4.43;;;1.70;;
75090;SDS011;63674;48.048;8.306;2023-07-20T14:41:26;5.70;;;2.10;;
75090;SDS011;63674;48.048;8.306;2023-07-20T14:43:54;5.25;;;1.60;;
75090;SDS011;63674;48.048;8.306;2023-07-20T14:46:25;5.20;;;1.70;;
75090;SDS011;63674;48.048;8.306;2023-07-20T14:48:55;6.40;;;1.73;;
75090;SDS011;63674;48.048;8.306;2023-07-20T14:51:23;5.07;;;1.63;;
75090;SDS011;63674;48.048;8.306;2023-07-20T14:54:03;4.18;;;1.60;;
75090;SDS011;63674;48.048;8.306;2023-07-20T14:56:34;6.00;;;1.60;;
75090;SDS011;63674;48.048;8.306;2023-07-20T14:59:04;6.28;;;1.90;;
75090;SDS011;63674;48.048;8.306;2023-07-20T15:01:34;6.53;;;1.50;;
75090;SDS011;63674;48.048;8.306;2023-07-20T15:04:03;5.50;;;1.60;;
75090;SDS011;63674;48.048;8.306;2023-07-20T15:06:32;5.72;;;1.92;;